createdAt,value
2024-02-02T00:07:50.608Z,85.35
2024-02-02T00:22:52.674Z,85.54
2024-02-02T00:37:51.292Z,84.54
2024-02-02T00:52:52.254Z,83.81
2024-02-02T01:07:52.129Z,84.37
2024-02-02T01:22:52.490Z,85.01
2024-02-02T01:37:52.884Z,84.84
2024-02-02T01:52:53.227Z,85.55
2024-02-02T02:07:53.509Z,85.37
2024-02-02T02:22:54.404Z,84.62
2024-02-02T02:37:54.815Z,84.81
2024-02-02T02:52:55.144Z,84.62
2024-02-02T03:07:55.486Z,84.79
2024-02-02T03:22:55.890Z,84.73
2024-02-02T03:37:56.145Z,85.16
2024-02-02T03:52:57.044Z,84.84
2024-02-02T04:07:57.963Z,85.33
2024-02-02T04:22:58.216Z,84.46
2024-02-02T04:37:58.905Z,84.94
2024-02-02T04:52:59.763Z,84.90
2024-02-02T05:08:00.664Z,84.63
2024-02-02T05:23:00.861Z,85.13
2024-02-02T05:38:01.627Z,85.26
2024-02-02T05:53:02.366Z,85.33
2024-02-02T06:08:02.841Z,85.38
2024-02-02T06:23:04.294Z,85.58
2024-02-02T06:38:03.994Z,84.97
2024-02-02T06:53:04.437Z,85.36
2024-02-02T07:08:05.002Z,85.39
2024-02-02T07:23:05.593Z,85.62
2024-02-02T07:38:06.226Z,85.19
2024-02-02T07:53:06.829Z,84.86
2024-02-02T08:08:07.575Z,84.36
2024-02-02T08:23:08.266Z,83.53
2024-02-02T08:38:08.834Z,83.19
2024-02-02T08:53:09.393Z,82.12
2024-02-02T09:08:09.969Z,80.82
2024-02-02T09:23:10.642Z,80.64
2024-02-02T09:38:11.440Z,80.62
2024-02-02T09:53:11.499Z,80.20
2024-02-02T10:08:12.132Z,79.93
2024-02-02T10:23:12.553Z,79.42
2024-02-02T10:38:12.972Z,79.58
2024-02-02T10:53:13.579Z,78.69
2024-02-02T11:08:14.115Z,80.37
2024-02-02T11:23:14.708Z,80.41
2024-02-02T11:38:15.225Z,79.40
2024-02-02T11:53:15.652Z,77.80
2024-02-02T12:08:16.696Z,76.99
2024-02-02T12:23:17.128Z,74.39
2024-02-02T12:38:18.045Z,74.53
2024-02-02T12:53:18.458Z,74.09
2024-02-02T13:08:18.961Z,73.54
2024-02-02T13:23:20.042Z,72.46
2024-02-02T13:38:20.373Z,71.77
2024-02-02T13:53:20.916Z,72.27
2024-02-02T14:08:21.446Z,71.72
2024-02-02T14:23:21.880Z,71.40
2024-02-02T14:38:22.216Z,71.05
2024-02-02T14:53:22.630Z,71.00
2024-02-02T15:08:23.049Z,70.74
2024-02-02T15:23:24.249Z,69.88
2024-02-02T15:38:24.776Z,69.37
2024-02-02T15:53:25.203Z,69.31
2024-02-02T16:08:25.719Z,69.69
2024-02-02T16:23:26.173Z,68.84
2024-02-02T16:38:26.792Z,68.43
2024-02-02T16:53:27.356Z,67.20
2024-02-02T17:08:27.859Z,65.80
2024-02-02T17:23:28.398Z,65.82
2024-02-02T17:38:29.030Z,66.40
2024-02-02T17:53:29.530Z,65.08
2024-02-02T18:08:30.369Z,64.54
2024-02-02T18:23:30.935Z,64.90
2024-02-02T18:38:31.627Z,64.60
2024-02-02T18:53:32.365Z,64.85
2024-02-02T19:08:33.077Z,63.42
2024-02-02T19:23:33.824Z,62.36
2024-02-02T19:38:34.639Z,61.65
2024-02-02T19:53:35.347Z,60.92
2024-02-02T20:08:36.058Z,61.61
2024-02-02T20:23:36.846Z,62.90
2024-02-02T20:38:37.588Z,62.54
2024-02-02T20:53:38.103Z,63.22
2024-02-02T21:08:38.891Z,63.27
2024-02-02T21:23:39.616Z,63.37
2024-02-02T21:38:40.386Z,63.35
2024-02-02T21:53:41.164Z,62.47
2024-02-02T22:08:41.960Z,62.41
2024-02-02T22:23:42.851Z,59.95
2024-02-02T22:38:43.085Z,58.89
2024-02-02T22:53:43.824Z,57.17
2024-02-02T23:08:44.583Z,56.32
2024-02-02T23:23:45.702Z,55.35
2024-02-02T23:38:46.078Z,53.86
2024-02-02T23:53:46.328Z,51.99
